createdAt,value
2018-09-20T00:01:49.916Z,76.40
2018-09-20T00:04:54.218Z,76.30
2018-09-20T00:08:04.839Z,76.40
2018-09-20T00:11:09.643Z,76.40
2018-09-20T00:14:14.657Z,76.40
2018-09-20T00:17:18.984Z,76.80
2018-09-20T00:20:23.885Z,77.00
2018-09-20T00:23:28.365Z,76.80
2018-09-20T00:26:32.699Z,76.60
2018-09-20T00:29:37.006Z,76.70
2018-09-20T00:32:41.189Z,76.60
2018-09-20T00:35:45.523Z,76.80
2018-09-20T00:38:49.887Z,77.00
2018-09-20T00:41:54.249Z,77.10
2018-09-20T00:44:58.499Z,77.20
2018-09-20T00:48:02.851Z,76.90
2018-09-20T00:51:07.167Z,77.10
2018-09-20T00:54:11.631Z,77.50
2018-09-20T00:57:15.660Z,77.30
2018-09-20T01:00:19.812Z,77.40
2018-09-20T01:03:24.130Z,77.40
2018-09-20T01:06:28.314Z,77.60
2018-09-20T01:09:32.562Z,78.70
2018-09-20T01:12:36.784Z,77.70
2018-09-20T01:15:41.075Z,77.60
2018-09-20T01:18:45.415Z,77.70
2018-09-20T01:21:49.538Z,77.50
2018-09-20T01:24:53.873Z,77.60
2018-09-20T01:27:58.363Z,77.40
2018-09-20T01:31:02.707Z,77.30
2018-09-20T01:34:07.054Z,77.40
2018-09-20T01:37:11.482Z,77.30
2018-09-20T01:40:15.726Z,77.30
2018-09-20T01:43:20.363Z,77.10
2018-09-20T01:46:24.712Z,77.30
2018-09-20T01:49:28.712Z,77.20
2018-09-20T01:52:33.072Z,77.30
2018-09-20T01:55:37.501Z,77.10
2018-09-20T01:58:41.752Z,77.00
2018-09-20T02:01:45.919Z,76.90
2018-09-20T02:04:49.840Z,77.30
2018-09-20T02:07:53.733Z,77.40
2018-09-20T02:10:57.875Z,77.40
2018-09-20T02:14:02.358Z,77.60
2018-09-20T02:17:06.683Z,77.70
2018-09-20T02:20:10.950Z,78.70
2018-09-20T02:23:15.368Z,77.80
2018-09-20T02:26:19.680Z,77.90
2018-09-20T02:29:24.130Z,78.10
2018-09-20T02:32:35.025Z,78.10
2018-09-20T02:35:39.438Z,78.40
2018-09-20T02:38:43.775Z,78.30
2018-09-20T02:41:48.197Z,78.10
2018-09-20T02:44:52.358Z,78.00
2018-09-20T02:47:56.489Z,78.00
2018-09-20T02:51:00.814Z,78.10
2018-09-20T02:54:05.176Z,77.90
2018-09-20T02:57:09.470Z,77.90
2018-09-20T03:00:13.868Z,78.00
2018-09-20T03:03:18.140Z,77.60
2018-09-20T03:06:22.783Z,77.30
2018-09-20T03:09:27.097Z,77.10
2018-09-20T03:12:31.328Z,77.10
2018-09-20T03:15:35.937Z,77.20
2018-09-20T03:18:40.278Z,77.40
2018-09-20T03:21:44.609Z,77.20
2018-09-20T03:24:48.780Z,77.10
2018-09-20T03:27:53.050Z,77.00
2018-09-20T03:30:57.346Z,77.10
2018-09-20T03:34:01.590Z,77.10
2018-09-20T03:37:06.042Z,77.00
2018-09-20T03:40:10.322Z,76.90
2018-09-20T03:43:14.651Z,76.60
2018-09-20T03:46:18.971Z,76.80
2018-09-20T03:49:23.285Z,76.90
2018-09-20T03:52:27.627Z,76.90
2018-09-20T03:55:32.034Z,77.20
2018-09-20T03:58:36.313Z,77.50
2018-09-20T04:01:40.542Z,77.70
2018-09-20T04:04:44.750Z,77.90
2018-09-20T04:07:48.909Z,77.90
2018-09-20T04:10:53.189Z,77.80
2018-09-20T04:13:57.462Z,77.60
2018-09-20T04:17:01.715Z,77.40
2018-09-20T04:20:06.598Z,77.50
2018-09-20T04:23:11.062Z,77.60
2018-09-20T04:26:15.434Z,77.70
2018-09-20T04:29:19.887Z,77.70
2018-09-20T04:32:24.207Z,77.80
2018-09-20T04:35:28.529Z,77.80
2018-09-20T04:38:32.894Z,77.70
2018-09-20T04:41:37.386Z,77.90
2018-09-20T04:44:41.726Z,77.90
2018-09-20T04:47:46.137Z,77.70
2018-09-20T04:50:50.756Z,77.70
2018-09-20T04:53:54.883Z,76.90
2018-09-20T04:56:59.090Z,77.60
2018-09-20T05:00:03.506Z,77.40
2018-09-20T05:03:07.644Z,77.10
2018-09-20T05:06:12.487Z,77.30
2018-09-20T05:09:16.809Z,77.10
2018-09-20T05:12:21.075Z,77.20
2018-09-20T05:15:25.221Z,77.00
2018-09-20T05:18:29.648Z,77.10
2018-09-20T05:21:34.005Z,76.70
2018-09-20T05:24:38.309Z,76.60
2018-09-20T05:27:42.540Z,76.50
2018-09-20T05:30:46.385Z,76.30
2018-09-20T05:33:50.393Z,76.20
2018-09-20T05:36:54.340Z,76.20
2018-09-20T05:39:58.589Z,76.30
2018-09-20T05:43:03.647Z,76.50
2018-09-20T05:46:08.062Z,76.40
2018-09-20T05:49:12.741Z,76.20
2018-09-20T05:52:17.005Z,75.90
2018-09-20T05:55:21.318Z,76.10
2018-09-20T05:58:25.601Z,75.60
2018-09-20T06:01:29.745Z,75.60
2018-09-20T06:04:33.985Z,75.50
2018-09-20T06:07:38.418Z,75.50
2018-09-20T06:10:42.631Z,75.90
2018-09-20T06:13:47.094Z,75.70
2018-09-20T06:16:51.415Z,76.10
2018-09-20T06:19:55.931Z,75.60
2018-09-20T06:23:00.165Z,75.60
2018-09-20T06:26:04.450Z,75.40
2018-09-20T06:29:08.795Z,75.10
2018-09-20T06:32:12.993Z,74.30
2018-09-20T06:35:17.245Z,73.60
2018-09-20T06:38:21.537Z,73.00
2018-09-20T06:41:26.001Z,72.50
2018-09-20T06:44:30.484Z,65.60
2018-09-20T06:47:34.909Z,59.70
2018-09-20T06:50:39.298Z,57.00
2018-09-20T06:53:43.767Z,56.20
2018-09-20T06:56:47.851Z,57.10
2018-09-20T06:59:52.618Z,57.20
2018-09-20T07:02:56.991Z,52.70
2018-09-20T07:06:01.538Z,48.40
2018-09-20T07:09:09.969Z,44.50
2018-09-20T07:12:14.383Z,39.90
2018-09-20T07:15:18.601Z,36.90
2018-09-20T07:18:22.907Z,34.70
2018-09-20T07:21:27.190Z,32.70
2018-09-20T07:24:32.021Z,30.60
2018-09-20T07:27:36.340Z,29.50
2018-09-20T07:30:40.598Z,29.40
2018-09-20T07:33:44.765Z,28.10
2018-09-20T07:36:49.170Z,27.30
2018-09-20T07:39:53.475Z,26.70
2018-09-20T07:42:58.438Z,26.40
2018-09-20T07:46:02.548Z,26.60
2018-09-20T07:49:06.782Z,25.50
2018-09-20T07:52:11.204Z,24.30
2018-09-20T07:55:15.404Z,23.20
2018-09-20T07:58:19.860Z,22.20
2018-09-20T08:01:24.305Z,21.60
2018-09-20T08:04:28.654Z,20.50
2018-09-20T08:07:33.020Z,20.50
2018-09-20T08:10:37.326Z,20.30
2018-09-20T08:13:41.421Z,20.30
2018-09-20T08:16:45.821Z,19.20
2018-09-20T08:19:50.050Z,19.00
2018-09-20T08:22:54.459Z,18.50
2018-09-20T08:25:58.582Z,17.80
2018-09-20T08:29:02.873Z,17.80
2018-09-20T08:32:07.421Z,17.60
2018-09-20T08:35:11.625Z,16.90
2018-09-20T08:38:16.042Z,17.10
2018-09-20T08:41:20.244Z,17.90
2018-09-20T08:44:25.252Z,17.00
2018-09-20T08:47:29.704Z,16.90
2018-09-20T08:50:34.197Z,17.00
2018-09-20T08:53:38.274Z,16.20
2018-09-20T08:56:42.502Z,15.80
2018-09-20T08:59:46.804Z,15.70
2018-09-20T09:02:51.165Z,15.50
2018-09-20T09:05:55.024Z,15.30
2018-09-20T09:08:59.672Z,15.40
2018-09-20T09:12:03.820Z,15.30
2018-09-20T09:15:08.386Z,14.90
2018-09-20T09:18:12.679Z,14.90
2018-09-20T09:21:16.730Z,14.60
2018-09-20T09:24:21.091Z,14.50
2018-09-20T09:27:25.227Z,14.20
2018-09-20T09:30:29.464Z,13.90
2018-09-20T09:33:33.768Z,13.70
2018-09-20T09:36:37.644Z,13.70
2018-09-20T09:39:41.543Z,13.50
2018-09-20T09:42:45.353Z,13.50
2018-09-20T09:45:49.370Z,13.20
2018-09-20T09:48:53.297Z,13.10
2018-09-20T09:51:57.138Z,13.00
2018-09-20T09:55:01.042Z,12.90
2018-09-20T09:58:05.237Z,12.70
2018-09-20T10:01:09.698Z,12.30
2018-09-20T10:04:13.991Z,12.50
2018-09-20T10:07:18.302Z,12.10
2018-09-20T10:10:22.180Z,12.40
2018-09-20T10:13:26.667Z,12.50
2018-09-20T10:16:30.715Z,12.20
2018-09-20T10:19:34.990Z,13.00
2018-09-20T10:22:39.340Z,13.90
2018-09-20T10:25:43.714Z,14.60
2018-09-20T10:28:48.211Z,15.40
2018-09-20T10:31:52.415Z,15.90
2018-09-20T10:34:56.321Z,16.90
2018-09-20T10:38:00.210Z,18.10
2018-09-20T10:41:04.137Z,18.60
2018-09-20T10:44:08.175Z,19.50
2018-09-20T10:47:12.420Z,20.20
2018-09-20T10:50:16.705Z,20.70
2018-09-20T10:53:20.941Z,20.80
2018-09-20T10:56:25.332Z,20.80
2018-09-20T10:59:29.979Z,20.90
2018-09-20T11:02:34.225Z,21.70
2018-09-20T11:05:38.279Z,21.80
2018-09-20T11:08:42.712Z,21.70
2018-09-20T11:11:47.025Z,21.90
2018-09-20T11:14:51.948Z,21.80
2018-09-20T11:17:56.429Z,22.50
2018-09-20T11:21:01.001Z,23.10
2018-09-20T11:24:05.571Z,22.80
2018-09-20T11:27:09.570Z,23.00
2018-09-20T11:30:13.857Z,23.10
2018-09-20T11:33:17.789Z,23.70
2018-09-20T11:36:22.296Z,23.50
2018-09-20T11:39:26.657Z,23.70
2018-09-20T11:42:31.016Z,23.40
2018-09-20T11:45:35.312Z,23.50
2018-09-20T11:48:39.401Z,23.20
2018-09-20T11:51:43.688Z,23.80
2018-09-20T11:54:47.549Z,24.10
2018-09-20T11:57:52.002Z,24.20
2018-09-20T12:00:56.374Z,23.50
2018-09-20T12:04:00.582Z,24.10
2018-09-20T12:07:05.081Z,24.30
2018-09-20T12:10:09.277Z,25.00
2018-09-20T12:13:14.429Z,25.00
2018-09-20T12:16:19.045Z,26.20
2018-09-20T12:19:23.342Z,26.60
2018-09-20T12:22:27.430Z,26.30
2018-09-20T12:25:31.782Z,26.10
2018-09-20T12:28:35.813Z,26.30
2018-09-20T12:31:40.016Z,26.00
2018-09-20T12:34:44.378Z,26.20
2018-09-20T12:37:48.836Z,26.00
2018-09-20T12:40:53.214Z,25.60
2018-09-20T12:43:57.488Z,25.40
2018-09-20T12:47:01.791Z,25.40
2018-09-20T12:50:06.339Z,25.20
2018-09-20T12:53:10.698Z,25.90
2018-09-20T12:56:14.628Z,26.40
2018-09-20T12:59:18.925Z,27.00
2018-09-20T13:02:23.438Z,27.00
2018-09-20T13:05:27.937Z,27.10
2018-09-20T13:08:32.122Z,27.00
2018-09-20T13:11:36.549Z,27.10
2018-09-20T13:14:40.501Z,27.30
2018-09-20T13:17:44.839Z,28.30
2018-09-20T13:20:49.146Z,28.00
2018-09-20T13:23:53.490Z,28.10
2018-09-20T13:26:57.784Z,28.60
2018-09-20T13:30:02.030Z,29.40
2018-09-20T13:33:06.057Z,30.00
2018-09-20T13:36:10.048Z,30.20
2018-09-20T13:39:14.026Z,30.60
2018-09-20T13:42:18.399Z,30.60
2018-09-20T13:45:22.757Z,31.90
2018-09-20T13:48:27.653Z,32.40
2018-09-20T13:51:32.347Z,33.40
2018-09-20T13:54:36.742Z,34.00
2018-09-20T13:57:41.029Z,35.00
2018-09-20T14:00:45.338Z,34.90
2018-09-20T14:03:49.745Z,35.50
2018-09-20T14:06:54.335Z,36.10
2018-09-20T14:09:58.529Z,36.40
2018-09-20T14:13:03.100Z,36.50
2018-09-20T14:16:07.898Z,37.60
2018-09-20T14:19:12.426Z,37.10
2018-09-20T14:22:16.868Z,36.30
2018-09-20T14:25:21.346Z,36.80
2018-09-20T14:28:25.583Z,37.00
2018-09-20T14:31:29.838Z,36.90
2018-09-20T14:34:34.910Z,37.00
2018-09-20T14:37:39.189Z,37.00
2018-09-20T14:40:43.406Z,37.40
2018-09-20T14:43:47.871Z,38.40
2018-09-20T14:46:52.177Z,38.50
2018-09-20T14:49:56.521Z,38.90
2018-09-20T14:53:00.728Z,38.50
2018-09-20T14:56:05.284Z,38.90
2018-09-20T14:59:09.337Z,39.40
2018-09-20T15:02:13.876Z,39.70
2018-09-20T15:05:17.786Z,39.70
2018-09-20T15:08:23.391Z,40.00
2018-09-20T15:11:27.711Z,40.00
2018-09-20T15:14:32.131Z,39.70
2018-09-20T15:17:36.229Z,40.00
2018-09-20T15:20:40.445Z,40.20
2018-09-20T15:23:44.788Z,40.30
2018-09-20T15:26:49.050Z,40.10
2018-09-20T15:29:52.991Z,40.40
2018-09-20T15:32:57.293Z,40.30
2018-09-20T15:36:01.546Z,40.60
2018-09-20T15:39:08.778Z,40.80
2018-09-20T15:42:12.977Z,41.20
2018-09-20T15:45:17.265Z,41.70
2018-09-20T15:48:21.717Z,41.70
2018-09-20T15:51:25.708Z,41.80
2018-09-20T15:54:29.958Z,41.90
2018-09-20T15:57:34.099Z,41.20
2018-09-20T16:00:38.030Z,41.40
2018-09-20T16:03:41.931Z,41.60
2018-09-20T16:06:45.830Z,42.00
2018-09-20T16:09:50.817Z,42.30
2018-09-20T16:12:54.797Z,42.30
2018-09-20T16:15:59.205Z,42.10
2018-09-20T16:19:03.331Z,42.30
2018-09-20T16:22:07.485Z,42.20
2018-09-20T16:25:11.805Z,42.50
2018-09-20T16:28:25.009Z,42.80
2018-09-20T16:31:53.724Z,44.00
2018-09-20T16:35:10.844Z,45.20
2018-09-20T16:38:23.094Z,45.50
2018-09-20T16:41:33.181Z,46.30
2018-09-20T16:44:37.522Z,46.90
2018-09-20T16:47:41.783Z,47.50
2018-09-20T16:50:46.186Z,47.80
2018-09-20T16:53:50.645Z,47.90
2018-09-20T16:56:54.860Z,48.10
2018-09-20T16:59:59.255Z,48.20
2018-09-20T17:03:03.505Z,47.80
2018-09-20T17:06:07.659Z,49.10
2018-09-20T17:09:12.021Z,49.10
2018-09-20T17:12:16.400Z,49.90
2018-09-20T17:15:20.463Z,50.50
2018-09-20T17:18:24.946Z,50.80
2018-09-20T17:21:29.294Z,51.60
2018-09-20T17:24:33.493Z,52.10
2018-09-20T17:27:38.000Z,52.70
2018-09-20T17:30:42.331Z,53.00
2018-09-20T17:33:49.754Z,53.50
2018-09-20T17:36:54.657Z,54.10
2018-09-20T17:40:00.311Z,54.60
2018-09-20T17:43:07.522Z,55.10
2018-09-20T17:46:12.115Z,55.40
2018-09-20T17:49:16.418Z,55.90
2018-09-20T17:52:22.513Z,56.30
2018-09-20T17:55:27.087Z,56.60
2018-09-20T17:58:31.653Z,57.00
2018-09-20T18:01:35.700Z,57.40
2018-09-20T18:04:39.817Z,57.90
2018-09-20T18:07:43.774Z,58.00
2018-09-20T18:10:47.735Z,58.20
2018-09-20T18:13:51.867Z,58.30
2018-09-20T18:16:55.874Z,58.50
2018-09-20T18:19:59.833Z,58.80
2018-09-20T18:23:04.093Z,59.00
2018-09-20T18:26:08.063Z,59.20
2018-09-20T18:29:11.976Z,59.30
2018-09-20T18:32:15.951Z,59.30
2018-09-20T18:35:19.995Z,59.50
2018-09-20T18:38:24.141Z,60.00
2018-09-20T18:41:28.454Z,60.10
2018-09-20T18:44:32.938Z,60.50
2018-09-20T18:47:37.233Z,63.20
2018-09-20T18:50:41.498Z,62.70
2018-09-20T18:53:45.666Z,62.50
2018-09-20T18:56:49.986Z,62.40
2018-09-20T18:59:54.424Z,62.40
2018-09-20T19:02:58.739Z,62.40
2018-09-20T19:06:31.229Z,62.80
2018-09-20T19:09:36.124Z,63.10
2018-09-20T19:12:40.389Z,62.80
2018-09-20T19:15:44.841Z,62.20
2018-09-20T19:18:49.069Z,62.20
2018-09-20T19:21:53.255Z,62.30
2018-09-20T19:24:57.592Z,62.70
2018-09-20T19:28:01.778Z,62.70
2018-09-20T19:31:06.421Z,62.80
2018-09-20T19:34:10.793Z,63.10
2018-09-20T19:37:14.754Z,63.30
2018-09-20T19:40:19.069Z,63.50
2018-09-20T19:43:30.081Z,63.60
2018-09-20T19:46:34.463Z,63.80
2018-09-20T19:49:38.687Z,65.30
2018-09-20T19:52:42.910Z,66.10
2018-09-20T19:55:47.251Z,65.70
2018-09-20T19:58:51.677Z,65.90
2018-09-20T20:01:55.807Z,65.70
2018-09-20T20:04:59.971Z,65.60
2018-09-20T20:08:04.550Z,65.30
2018-09-20T20:11:08.844Z,65.70
2018-09-20T20:14:13.179Z,65.60
2018-09-20T20:17:17.514Z,66.50
2018-09-20T20:20:21.992Z,66.50
2018-09-20T20:23:25.896Z,66.20
2018-09-20T20:26:30.264Z,65.70
2018-09-20T20:29:34.574Z,65.60
2018-09-20T20:32:38.921Z,66.50
2018-09-20T20:35:43.334Z,66.80
2018-09-20T20:38:48.077Z,66.80
2018-09-20T20:41:52.603Z,66.80
2018-09-20T20:44:57.138Z,66.90
2018-09-20T20:48:01.666Z,67.20
2018-09-20T20:51:06.038Z,66.20
2018-09-20T20:54:10.556Z,65.80
2018-09-20T20:57:14.851Z,65.30
2018-09-20T21:00:19.233Z,65.70
2018-09-20T21:03:23.523Z,65.90
2018-09-20T21:06:27.782Z,66.00
2018-09-20T21:09:31.941Z,66.40
2018-09-20T21:12:36.290Z,67.40
2018-09-20T21:15:40.611Z,66.70
2018-09-20T21:18:45.113Z,67.00
2018-09-20T21:21:49.680Z,67.10
2018-09-20T21:24:53.925Z,67.10
2018-09-20T21:27:58.191Z,67.30
2018-09-20T21:31:02.431Z,67.50
2018-09-20T21:34:07.075Z,67.60
2018-09-20T21:37:11.726Z,67.60
2018-09-20T21:40:16.170Z,67.80
2018-09-20T21:43:20.325Z,68.00
2018-09-20T21:46:24.768Z,68.20
2018-09-20T21:49:28.782Z,68.10
2018-09-20T21:52:33.086Z,68.10
2018-09-20T21:55:37.426Z,68.30
2018-09-20T21:58:41.943Z,68.40
2018-09-20T22:01:51.146Z,68.30
2018-09-20T22:04:55.384Z,68.40
2018-09-20T22:07:59.651Z,68.40
2018-09-20T22:11:04.138Z,68.60
2018-09-20T22:14:08.147Z,69.50
2018-09-20T22:17:12.523Z,68.80
2018-09-20T22:20:17.027Z,68.80
2018-09-20T22:23:21.363Z,68.80
2018-09-20T22:26:25.368Z,68.90
2018-09-20T22:29:29.258Z,69.00
2018-09-20T22:32:33.783Z,69.20
2018-09-20T22:35:37.976Z,69.40
2018-09-20T22:38:42.251Z,69.60
2018-09-20T22:41:46.585Z,69.30
2018-09-20T22:44:51.243Z,69.50
2018-09-20T22:47:55.753Z,70.30
2018-09-20T22:51:00.114Z,71.50
2018-09-20T22:54:04.409Z,71.20
2018-09-20T22:57:08.744Z,71.10
2018-09-20T23:00:12.891Z,71.00
2018-09-20T23:03:17.193Z,71.00
2018-09-20T23:06:21.474Z,71.00
2018-09-20T23:09:25.748Z,71.00
2018-09-20T23:12:29.622Z,70.90
2018-09-20T23:15:34.090Z,71.80
2018-09-20T23:18:38.421Z,70.80
2018-09-20T23:21:42.908Z,70.80
2018-09-20T23:24:47.192Z,70.80
2018-09-20T23:27:51.674Z,70.90
2018-09-20T23:30:55.936Z,70.60
2018-09-20T23:34:00.234Z,70.60
2018-09-20T23:37:04.396Z,70.50
2018-09-20T23:40:08.619Z,70.70
2018-09-20T23:43:12.835Z,70.80
2018-09-20T23:46:17.161Z,70.70
2018-09-20T23:49:21.405Z,70.10
2018-09-20T23:52:25.725Z,71.00
2018-09-20T23:55:30.047Z,71.00
2018-09-20T23:58:34.641Z,71.10
